Time;durP1;ratioP1;P1;durP2;ratioP2;P2;SDS_P1;SDS_P2;PMS_P1;PMS_P2;Temp;Humidity;BMP_temperature;BMP_pressure;BME280_temperature;BME280_humidity;BME280_pressure;Samples;Min_cycle;Max_cycle;Signal;HPM_P1;HPM_P2
2022/08/05 00:00:35;;;;;;;6.25;3.83;;;18.80;99.90;;;;;;4960700;28;20097;-74
2022/08/05 00:03:00;;;;;;;6.82;4.10;;;18.80;99.90;;;;;;4976599;28;20128;-74
2022/08/05 00:05:26;;;;;;;8.70;4.20;;;18.80;99.90;;;;;;4993714;28;20133;-74
2022/08/05 00:07:52;;;;;;;8.35;4.40;;;18.80;99.90;;;;;;4994477;28;20130;-75
2022/08/05 00:10:18;;;;;;;8.15;4.43;;;18.80;99.90;;;;;;4976101;28;20065;-75
2022/08/05 00:12:43;;;;;;;11.32;4.72;;;18.80;99.90;;;;;;4993676;28;20507;-74
2022/08/05 00:15:09;;;;;;;7.70;4.32;;;18.80;99.90;;;;;;4976889;28;20046;-75
2022/08/05 00:17:35;;;;;;;6.40;4.65;;;18.80;99.90;;;;;;4978468;28;20046;-74
2022/08/05 00:20:01;;;;;;;7.20;5.15;;;18.80;99.90;;;;;;4980304;28;20483;-75
2022/08/05 00:22:26;;;;;;;12.18;5.43;;;18.70;99.90;;;;;;4995959;28;20050;-75
2022/08/05 00:24:52;;;;;;;6.00;5.15;;;18.70;99.90;;;;;;4995987;28;20046;-74
2022/08/05 00:27:17;;;;;;;7.13;4.70;;;18.70;99.90;;;;;;4995967;28;20053;-74
2022/08/05 00:29:43;;;;;;;7.53;4.20;;;18.70;99.90;;;;;;4995960;28;20494;-74
2022/08/05 00:32:11;;;;;;;5.35;3.40;;;18.70;99.90;;;;;;4979680;28;20152;-73
2022/08/05 00:34:38;;;;;;;5.35;3.30;;;18.70;99.90;;;;;;4996294;28;20050;-74
2022/08/05 00:37:04;;;;;;;3.90;2.88;;;18.70;99.90;;;;;;4997027;28;20050;-74
2022/08/05 00:39:30;;;;;;;4.60;3.03;;;18.70;99.90;;;;;;4995718;28;20056;-74
2022/08/05 00:41:56;;;;;;;3.80;2.67;;;18.70;99.90;;;;;;4980425;28;20046;-74
2022/08/05 00:44:22;;;;;;;6.55;2.40;;;18.70;99.90;;;;;;4979614;28;20517;-74
2022/08/05 00:46:48;;;;;;;6.65;2.10;;;18.60;99.90;;;;;;4995860;28;20056;-75
2022/08/05 00:49:17;;;;;;;2.90;1.90;;;18.20;99.90;;;;;;4996726;28;20042;-75
2022/08/05 00:51:44;;;;;;;4.53;2.00;;;18.60;99.90;;;;;;4980091;28;20050;-75
2022/08/05 00:54:11;;;;;;;5.15;2.63;;;18.60;99.90;;;;;;4980186;28;20453;-75
2022/08/05 00:56:37;;;;;;;2.88;2.13;;;18.60;99.90;;;;;;4996202;28;20391;-75
2022/08/05 00:59:02;;;;;;;4.45;1.95;;;18.60;99.90;;;;;;4996147;28;20046;-75
2022/08/05 01:01:28;;;;;;;4.70;1.75;;;18.60;99.90;;;;;;4995814;28;20054;-75
2022/08/05 01:03:54;;;;;;;4.93;2.08;;;18.60;99.90;;;;;;4980162;28;20463;-74
2022/08/05 01:06:19;;;;;;;3.63;1.73;;;18.60;99.90;;;;;;4995150;28;20050;-75
2022/08/05 01:08:45;;;;;;;5.45;1.80;;;18.60;99.90;;;;;;4963155;28;20039;-75
2022/08/05 01:11:31;;;;;;;5.05;1.58;;;18.60;99.90;;;;;;4962653;28;20050;-75
2022/08/05 01:14:22;;;;;;;2.10;1.40;;;18.70;99.90;;;;;;4995813;28;20050;-75
2022/08/05 01:17:01;;;;;;;4.78;1.73;;;18.60;99.90;;;;;;4978780;28;20113;-74
2022/08/05 01:19:34;;;;;;;3.05;1.38;;;18.70;99.90;;;;;;4996179;28;20042;-75
2022/08/05 01:22:30;;;;;;;4.70;1.50;;;18.60;99.90;;;;;;4995760;28;20440;-75
2022/08/05 01:25:38;;;;;;;2.75;1.40;;;18.70;99.90;;;;;;4995490;28;20062;-75
2022/08/05 01:28:25;;;;;;;4.13;1.33;;;18.70;99.90;;;;;;4958397;28;20065;-75
2022/08/05 01:31:00;;;;;;;2.22;1.20;;;18.70;99.90;;;;;;4996388;28;20479;-76
2022/08/05 01:33:33;;;;;;;3.80;1.30;;;18.70;99.90;;;;;;4979342;28;20050;-75
2022/08/05 01:36:02;;;;;;;2.70;1.20;;;18.70;99.90;;;;;;4996557;28;20455;-75
2022/08/05 01:38:29;;;;;;;3.03;1.38;;;18.70;99.90;;;;;;4994752;28;20500;-75
2022/08/05 01:40:57;;;;;;;4.00;1.45;;;18.70;99.90;;;;;;4995840;28;20138;-75
2022/08/05 01:43:23;;;;;;;5.95;1.85;;;18.70;99.90;;;;;;4994743;28;20082;-75
2022/08/05 01:45:51;;;;;;;3.63;1.50;;;18.70;99.90;;;;;;4995700;28;20054;-75
2022/08/05 01:48:17;;;;;;;6.10;1.80;;;18.70;99.90;;;;;;4978709;28;20081;-75
2022/08/05 01:50:45;;;;;;;2.78;1.10;;;18.70;99.90;;;;;;4994940;28;20047;-75
2022/08/05 01:53:15;;;;;;;4.95;1.33;;;18.70;99.90;;;;;;4995443;28;20406;-75
2022/08/05 01:55:43;;;;;;;4.28;1.90;;;18.70;99.90;;;;;;4996282;28;20399;-75
2022/08/05 01:58:11;;;;;;;3.28;1.45;;;18.70;99.90;;;;;;4994412;28;20133;-75
2022/08/05 02:00:41;;;;;;;3.08;1.40;;;18.70;99.90;;;;;;4978286;28;20514;-74
2022/08/05 02:03:16;;;;;;;5.13;1.60;;;18.70;99.90;;;;;;4994024;28;20128;-75
2022/08/05 02:05:43;;;;;;;4.47;1.60;;;18.70;99.90;;;;;;4994170;28;20045;-75
2022/08/05 02:08:09;;;;;;;3.83;1.40;;;18.70;99.90;;;;;;4995383;28;20086;-75
2022/08/05 02:10:47;;;;;;;3.10;1.50;;;18.70;99.90;;;;;;4993770;28;20144;-75
2022/08/05 02:13:21;;;;;;;2.95;1.48;;;18.70;99.90;;;;;;4996141;28;20054;-75
2022/08/05 02:15:53;;;;;;;3.28;1.65;;;18.70;99.90;;;;;;4978385;28;20058;-75
2022/08/05 02:18:39;;;;;;;4.07;1.85;;;18.70;99.90;;;;;;4994196;28;20042;-75
2022/08/05 02:21:17;;;;;;;5.53;2.80;;;18.70;99.90;;;;;;4978729;28;20049;-75
2022/08/05 02:23:47;;;;;;;5.18;2.22;;;18.70;99.90;;;;;;4995049;28;20049;-75
2022/08/05 02:26:19;;;;;;;4.10;2.00;;;18.70;99.90;;;;;;4978689;28;20054;-75
2022/08/05 02:28:46;;;;;;;4.32;2.20;;;18.70;99.90;;;;;;4994111;28;20132;-75
2022/08/05 02:31:25;;;;;;;5.55;2.30;;;18.70;99.90;;;;;;4993734;28;20096;-75
2022/08/05 02:33:56;;;;;;;6.25;2.53;;;18.70;99.90;;;;;;4978040;28;20144;-75
2022/08/05 02:36:24;;;;;;;4.15;2.20;;;18.70;99.90;;;;;;4995637;28;20046;-75
2022/08/05 02:38:51;;;;;;;4.68;2.08;;;18.70;99.90;;;;;;4977457;28;20042;-75
2022/08/05 02:41:19;;;;;;;3.75;2.35;;;18.70;99.90;;;;;;4993802;28;20121;-75
2022/08/05 02:43:48;;;;;;;4.35;2.42;;;18.70;99.90;;;;;;4994027;28;20124;-75
2022/08/05 02:46:19;;;;;;;5.53;2.35;;;18.70;99.90;;;;;;4994406;28;20125;-75
2022/08/05 02:48:46;;;;;;;3.83;2.05;;;18.70;99.90;;;;;;4977446;28;20076;-75
2022/08/05 02:51:14;;;;;;;5.35;2.50;;;18.70;99.90;;;;;;4993548;28;20050;-75
2022/08/05 02:53:41;;;;;;;5.10;2.65;;;18.70;99.90;;;;;;4994276;28;20101;-75
2022/08/05 02:56:10;;;;;;;2.83;1.92;;;18.70;99.90;;;;;;4994227;28;20057;-75
2022/08/05 02:58:39;;;;;;;3.70;2.10;;;18.70;99.90;;;;;;4993353;28;20054;-75
2022/08/05 03:01:06;;;;;;;4.40;2.03;;;18.70;99.90;;;;;;4993412;28;20057;-75
2022/08/05 03:03:34;;;;;;;3.53;2.38;;;18.70;99.90;;;;;;4994653;28;20043;-74
2022/08/05 03:06:00;;;;;;;3.55;2.25;;;18.70;99.90;;;;;;4977484;28;20133;-74
2022/08/05 03:08:26;;;;;;;4.30;2.15;;;18.70;99.90;;;;;;4976975;28;20399;-75
2022/08/05 03:10:52;;;;;;;3.25;2.15;;;18.70;99.90;;;;;;4992961;28;20094;-75
2022/08/05 03:13:18;;;;;;;4.95;2.10;;;18.60;99.90;;;;;;4994243;28;20042;-75
2022/08/05 03:15:45;;;;;;;2.58;1.65;;;18.60;99.90;;;;;;4993151;28;20395;-74
2022/08/05 03:18:12;;;;;;;4.43;1.77;;;18.70;99.90;;;;;;4993386;28;20406;-75
2022/08/05 03:20:38;;;;;;;3.22;2.15;;;18.60;99.90;;;;;;4993255;28;20051;-75
2022/08/05 03:23:05;;;;;;;3.90;1.83;;;18.60;99.90;;;;;;4993119;28;20471;-75
2022/08/05 03:25:33;;;;;;;4.22;2.15;;;18.70;99.90;;;;;;4977272;28;20423;-75
2022/08/05 03:27:59;;;;;;;4.10;2.45;;;18.60;99.90;;;;;;4993474;28;20112;-75
2022/08/05 03:30:27;;;;;;;4.45;2.75;;;18.60;99.90;;;;;;4994106;28;20054;-75
2022/08/05 03:32:53;;;;;;;6.15;2.88;;;18.60;99.90;;;;;;4976905;28;20146;-75
2022/08/05 03:35:20;;;;;;;6.45;3.00;;;18.50;99.90;;;;;;4977139;28;20042;-75
2022/08/05 03:37:46;;;;;;;5.75;3.58;;;18.60;99.90;;;;;;4976890;28;20050;-75
2022/08/05 03:40:12;;;;;;;4.75;3.00;;;18.50;99.90;;;;;;4976452;28;20053;-75
2022/08/05 03:42:39;;;;;;;6.38;3.17;;;18.50;99.90;;;;;;4992881;28;20129;-74
2022/08/05 03:45:06;;;;;;;4.70;2.67;;;18.50;99.90;;;;;;4977630;28;20054;-75
2022/08/05 03:47:32;;;;;;;5.38;3.15;;;18.40;99.90;;;;;;4976537;28;20053;-75
2022/08/05 03:49:57;;;;;;;4.07;3.00;;;18.40;99.90;;;;;;4992775;28;20046;-75
2022/08/05 03:52:32;;;;;;;4.18;3.15;;;18.50;99.90;;;;;;4979115;28;20109;-75
2022/08/05 03:55:02;;;;;;;6.43;2.90;;;18.50;99.90;;;;;;4997339;28;20054;-75
2022/08/05 03:57:32;;;;;;;5.90;3.00;;;18.50;99.90;;;;;;4997777;28;20077;-75
2022/08/05 04:00:08;;;;;;;4.05;2.83;;;18.40;99.90;;;;;;4997603;28;20046;-75
2022/08/05 04:02:36;;;;;;;4.63;3.28;;;18.40;99.90;;;;;;4997680;28;20046;-74
2022/08/05 04:05:04;;;;;;;3.53;3.15;;;18.40;99.90;;;;;;4965048;28;20061;-75
2022/08/05 04:07:32;;;;;;;3.42;2.78;;;18.50;99.90;;;;;;4980636;28;20050;-75
2022/08/05 04:09:59;;;;;;;4.32;2.60;;;18.40;99.90;;;;;;4997919;28;20152;-75
2022/08/05 04:12:25;;;;;;;2.67;2.35;;;18.40;99.90;;;;;;4980863;28;20503;-75
2022/08/05 04:14:51;;;;;;;4.63;2.72;;;18.40;99.90;;;;;;4996241;28;20086;-75
2022/08/05 04:17:17;;;;;;;5.50;3.20;;;18.40;99.90;;;;;;4996537;28;20136;-75
2022/08/05 04:19:44;;;;;;;4.88;2.90;;;18.30;99.90;;;;;;4980026;28;20049;-75
2022/08/05 04:22:11;;;;;;;4.22;2.85;;;18.30;99.90;;;;;;4979988;28;20509;-75
2022/08/05 04:24:41;;;;;;;4.82;2.50;;;18.30;99.90;;;;;;4980197;28;20399;-75
2022/08/05 04:27:07;;;;;;;4.47;2.67;;;18.30;99.90;;;;;;4980375;28;20108;-75
2022/08/05 04:29:33;;;;;;;3.83;2.80;;;18.30;99.90;;;;;;4996995;28;20133;-75
2022/08/05 04:31:59;;;;;;;3.33;2.97;;;18.30;99.90;;;;;;4996362;28;20154;-75
2022/08/05 04:34:25;;;;;;;5.75;2.88;;;18.40;99.90;;;;;;4979561;28;20042;-75
2022/08/05 04:36:50;;;;;;;4.38;3.00;;;18.40;99.90;;;;;;4997326;28;20046;-75
2022/08/05 04:39:17;;;;;;;4.68;2.70;;;18.40;99.90;;;;;;4964342;28;20038;-74
2022/08/05 04:41:43;;;;;;;6.30;3.05;;;18.40;99.90;;;;;;4980576;28;20065;-75
2022/08/05 04:44:09;;;;;;;2.92;2.63;;;18.40;99.90;;;;;;4997616;28;20387;-75
2022/08/05 04:46:34;;;;;;;7.35;2.60;;;18.40;99.90;;;;;;4980464;28;20046;-75
2022/08/05 04:49:00;;;;;;;5.00;3.05;;;18.40;99.90;;;;;;4964343;28;20046;-75
2022/08/05 04:51:26;;;;;;;5.82;2.85;;;18.40;99.90;;;;;;4980415;28;20053;-75
2022/08/05 04:53:51;;;;;;;5.65;3.03;;;18.40;99.90;;;;;;4996646;28;20053;-75
2022/08/05 04:56:17;;;;;;;4.70;2.97;;;18.40;99.90;;;;;;4995653;28;20073;-75
2022/08/05 04:58:43;;;;;;;6.30;2.97;;;18.40;99.90;;;;;;4979379;28;20050;-74
2022/08/05 05:01:09;;;;;;;3.45;2.75;;;18.40;99.90;;;;;;4979688;28;20049;-75
2022/08/05 05:03:34;;;;;;;5.18;3.55;;;18.40;99.90;;;;;;4978139;28;20047;-75
2022/08/05 05:06:00;;;;;;;4.28;3.00;;;18.30;99.90;;;;;;4980071;28;20058;-75
2022/08/05 05:08:26;;;;;;;3.83;2.75;;;18.30;99.90;;;;;;4996390;28;20038;-75
2022/08/05 05:10:52;;;;;;;4.50;2.85;;;18.30;99.90;;;;;;4996287;28;20062;-75
2022/08/05 05:13:17;;;;;;;4.55;2.65;;;18.30;99.90;;;;;;4996355;28;20132;-74
2022/08/05 05:15:44;;;;;;;5.50;2.40;;;18.30;99.90;;;;;;4979118;28;20043;-75
2022/08/05 05:18:14;;;;;;;4.30;2.83;;;18.30;99.90;;;;;;4995449;28;20054;-75
2022/08/05 05:20:42;;;;;;;3.70;2.70;;;18.40;99.90;;;;;;4963315;28;20050;-75
2022/08/05 05:23:08;;;;;;;4.38;2.78;;;18.30;99.90;;;;;;4995966;28;20053;-75
2022/08/05 05:25:34;;;;;;;4.70;3.03;;;18.40;99.90;;;;;;4994901;28;20398;-75
2022/08/05 05:28:00;;;;;;;4.80;2.80;;;18.30;99.90;;;;;;4996071;28;20046;-75
2022/08/05 05:30:26;;;;;;;4.88;3.03;;;18.30;99.90;;;;;;4995671;28;20050;-74
2022/08/05 05:32:52;;;;;;;5.57;2.20;;;18.30;99.90;;;;;;4995028;28;20057;-75
2022/08/05 05:35:18;;;;;;;3.80;2.40;;;18.30;99.90;;;;;;4994783;28;20414;-75
2022/08/05 05:37:52;;;;;;;4.07;2.50;;;18.30;99.90;;;;;;4978734;28;20121;-75
2022/08/05 05:40:19;;;;;;;3.60;2.55;;;18.30;99.90;;;;;;4995902;28;20115;-74
2022/08/05 05:42:48;;;;;;;5.72;3.13;;;18.30;99.90;;;;;;4994893;28;20398;-74
2022/08/05 05:45:14;;;;;;;3.92;2.85;;;18.40;99.90;;;;;;4995483;28;20489;-75
2022/08/05 05:47:40;;;;;;;7.85;3.63;;;18.30;99.90;;;;;;4994992;28;20394;-75
2022/08/05 05:50:08;;;;;;;3.92;2.33;;;18.30;99.90;;;;;;4978483;28;20613;-75
2022/08/05 05:52:34;;;;;;;3.97;2.00;;;18.40;99.90;;;;;;4996061;28;20053;-76
2022/08/05 05:55:01;;;;;;;2.35;1.77;;;18.40;99.90;;;;;;4995637;28;20049;-74
2022/08/05 05:57:26;;;;;;;4.35;1.80;;;18.40;99.90;;;;;;4995338;28;20056;-79
2022/08/05 05:59:52;;;;;;;3.05;1.80;;;18.30;99.90;;;;;;4995015;28;20129;-79
2022/08/05 06:02:18;;;;;;;3.80;1.88;;;18.30;99.90;;;;;;4962260;28;20478;-79
2022/08/05 06:04:43;;;;;;;3.00;1.85;;;18.30;99.90;;;;;;4978265;28;20058;-78
2022/08/05 06:07:09;;;;;;;4.00;2.33;;;18.30;99.90;;;;;;4994397;28;20502;-79
2022/08/05 06:09:35;;;;;;;3.67;1.90;;;18.30;99.90;;;;;;4994624;28;20502;-79
2022/08/05 06:12:00;;;;;;;3.97;2.58;;;18.30;99.90;;;;;;4961584;28;20081;-79
2022/08/05 06:14:27;;;;;;;5.03;2.42;;;18.30;99.90;;;;;;4993970;28;20050;-79
2022/08/05 06:16:52;;;;;;;5.00;2.78;;;18.20;99.90;;;;;;4978135;28;20144;-80
2022/08/05 06:19:18;;;;;;;4.20;2.88;;;18.20;99.90;;;;;;4977812;28;20137;-81
2022/08/05 06:21:45;;;;;;;3.35;2.45;;;18.20;99.90;;;;;;4977892;28;20042;-80
2022/08/05 06:24:10;;;;;;;4.35;2.70;;;18.20;99.90;;;;;;4993649;28;20050;-80
2022/08/05 06:26:36;;;;;;;4.10;3.05;;;18.20;99.90;;;;;;4978102;28;20057;-80
2022/08/05 06:29:02;;;;;;;3.33;2.63;;;18.20;99.90;;;;;;4994772;28;20039;-80
2022/08/05 06:31:28;;;;;;;4.53;3.17;;;18.20;99.90;;;;;;4961794;28;20085;-79
2022/08/05 06:33:54;;;;;;;4.68;2.80;;;18.10;99.90;;;;;;4961764;28;20132;-80
2022/08/05 06:36:20;;;;;;;4.20;2.33;;;18.10;99.90;;;;;;4961354;28;20482;-80
2022/08/05 06:38:45;;;;;;;3.30;2.38;;;18.20;99.90;;;;;;4961615;28;20046;-80
2022/08/05 06:41:11;;;;;;;3.65;2.22;;;18.20;99.90;;;;;;4961842;28;20046;-79
2022/08/05 06:43:37;;;;;;;5.15;2.55;;;18.20;99.90;;;;;;4978380;28;20069;-81
2022/08/05 06:46:02;;;;;;;3.33;2.15;;;18.30;99.90;;;;;;4993836;28;20046;-80
2022/08/05 06:48:28;;;;;;;4.45;2.20;;;18.30;99.90;;;;;;4961554;28;20464;-80
2022/08/05 06:50:54;;;;;;;3.85;1.70;;;18.30;99.90;;;;;;4961694;28;20053;-79
2022/08/05 06:53:20;;;;;;;3.30;1.90;;;18.30;99.90;;;;;;4961442;28;20042;-80
2022/08/05 06:55:45;;;;;;;3.95;1.92;;;18.40;99.90;;;;;;4977090;28;20046;-81
2022/08/05 06:58:11;;;;;;;1.98;1.70;;;18.40;99.90;;;;;;4977160;28;20042;-80
2022/08/05 07:00:37;;;;;;;7.18;1.67;;;18.50;99.90;;;;;;4977498;28;20038;-80
2022/08/05 07:03:02;;;;;;;1.85;1.20;;;18.50;99.90;;;;;;4977228;28;20103;-78
2022/08/05 07:05:28;;;;;;;2.83;1.33;;;18.50;99.90;;;;;;4993348;28;20089;-80
2022/08/05 07:07:54;;;;;;;2.17;1.30;;;18.60;99.90;;;;;;4977395;28;20043;-82
2022/08/05 07:10:20;;;;;;;3.72;1.40;;;18.60;99.90;;;;;;4977514;28;20077;-80
2022/08/05 07:18:13;;;;;;;1.70;1.05;;;18.70;99.90;;;;;;4966750;28;20133;-80
2022/08/05 07:20:39;;;;;;;3.75;1.20;;;18.80;99.90;;;;;;4977547;28;20542;-80
2022/08/05 07:23:04;;;;;;;2.47;1.20;;;18.80;99.90;;;;;;4960985;28;20082;-80
2022/08/05 07:25:30;;;;;;;3.00;1.13;;;18.90;99.90;;;;;;4977930;28;20090;-79
2022/08/05 07:27:56;;;;;;;3.15;1.05;;;18.90;99.90;;;;;;4951363;28;20072;-80
2022/08/05 07:30:22;;;;;;;2.30;0.85;;;19.00;99.90;;;;;;4983518;28;20046;-80
2022/08/05 07:32:47;;;;;;;1.20;0.90;;;19.00;99.90;;;;;;4967846;28;20051;-81
2022/08/05 07:35:14;;;;;;;2.00;1.00;;;19.00;99.90;;;;;;4984318;28;20054;-79
2022/08/05 07:37:40;;;;;;;2.83;0.80;;;19.00;99.90;;;;;;4999703;28;20054;-84
2022/08/05 07:40:07;;;;;;;1.10;0.90;;;19.00;99.90;;;;;;4983486;28;20042;-81
2022/08/05 07:42:33;;;;;;;1.55;0.80;;;19.00;99.90;;;;;;4999589;28;20054;-80
2022/08/05 07:44:59;;;;;;;1.33;0.60;;;19.10;99.90;;;;;;4968174;28;20057;-81
2022/08/05 07:47:25;;;;;;;0.88;0.80;;;19.10;99.90;;;;;;4983343;28;20054;-80
2022/08/05 07:49:51;;;;;;;2.80;0.60;;;19.10;99.90;;;;;;4999736;28;20137;-78
2022/08/05 07:52:20;;;;;;;2.35;0.73;;;19.20;99.90;;;;;;4983601;28;20057;-85
2022/08/05 07:54:46;;;;;;;1.88;0.70;;;19.20;99.90;;;;;;4983312;28;20050;-83
2022/08/05 07:57:13;;;;;;;0.75;0.70;;;19.20;99.90;;;;;;4999512;28;20577;-84
2022/08/05 07:59:38;;;;;;;1.08;0.50;;;19.30;99.90;;;;;;4999285;28;20049;-85
2022/08/05 08:02:06;;;;;;;1.33;0.60;;;19.30;99.90;;;;;;4999774;28;20387;-85
2022/08/05 08:04:32;;;;;;;1.63;0.60;;;19.30;99.90;;;;;;4983588;28;20050;-84
2022/08/05 08:06:59;;;;;;;1.45;0.77;;;19.30;99.90;;;;;;4968027;28;20356;-84
2022/08/05 08:09:25;;;;;;;1.13;0.70;;;19.40;99.90;;;;;;4983477;28;20085;-83
2022/08/05 08:11:51;;;;;;;1.55;0.55;;;19.40;99.90;;;;;;4967582;28;20070;-82
2022/08/05 08:14:17;;;;;;;1.13;0.60;;;19.50;99.90;;;;;;4967121;28;20109;-83
2022/08/05 08:16:42;;;;;;;2.05;0.50;;;19.50;99.90;;;;;;4983092;28;20382;-84
2022/08/05 08:19:08;;;;;;;2.92;0.50;;;19.50;99.90;;;;;;4983239;28;20042;-83
2022/08/05 08:21:34;;;;;;;1.35;0.60;;;19.50;99.90;;;;;;4951021;28;20057;-87
2022/08/05 08:24:00;;;;;;;2.55;0.57;;;19.50;99.90;;;;;;4983799;28;20137;-86
2022/08/05 08:26:25;;;;;;;0.82;0.60;;;19.60;99.90;;;;;;4983887;28;20057;-87
2022/08/05 08:28:51;;;;;;;1.20;0.60;;;19.60;99.90;;;;;;4983370;28;20158;-86
2022/08/05 08:31:17;;;;;;;3.33;0.68;;;19.60;99.90;;;;;;4998953;28;20042;-86
2022/08/05 08:33:44;;;;;;;1.75;0.50;;;19.60;99.90;;;;;;4966895;28;20050;-87
2022/08/05 08:36:09;;;;;;;1.80;0.60;;;19.60;99.90;;;;;;4967004;28;20050;-87
2022/08/05 08:38:35;;;;;;;0.50;0.40;;;19.60;99.90;;;;;;4980854;28;20046;-88
2022/08/05 08:41:08;;;;;;;2.25;0.50;;;19.60;99.90;;;;;;4963834;28;20085;-87
2022/08/05 08:43:36;;;;;;;0.85;0.45;;;19.70;99.90;;;;;;4979656;28;20105;-88
2022/08/05 08:46:04;;;;;;;0.50;0.40;;;19.80;99.90;;;;;;4980298;28;20145;-88
2022/08/05 08:48:31;;;;;;;0.32;0.30;;;19.80;99.90;;;;;;4995928;28;20060;-89
2022/08/05 08:50:59;;;;;;;0.75;0.40;;;19.90;99.90;;;;;;4963215;28;20103;-87
2022/08/05 08:53:26;;;;;;;0.45;0.30;;;20.00;99.90;;;;;;4996607;28;20348;-86
2022/08/05 08:55:53;;;;;;;1.08;0.30;;;20.00;99.90;;;;;;4963427;28;20042;-86
2022/08/05 08:58:19;;;;;;;1.98;0.40;;;19.90;99.90;;;;;;4979660;28;20045;-85
2022/08/05 09:00:46;;;;;;;0.50;0.47;;;19.90;99.90;;;;;;4979634;28;20050;-86
2022/08/05 09:03:12;;;;;;;0.52;0.30;;;20.00;99.90;;;;;;4979536;28;20053;-88
2022/08/05 09:05:38;;;;;;;1.40;0.40;;;20.00;99.90;;;;;;4979462;28;20470;-87
2022/08/05 09:08:04;;;;;;;1.20;0.38;;;20.00;99.90;;;;;;4979803;28;20054;-85
2022/08/05 09:10:29;;;;;;;1.95;0.47;;;20.10;99.90;;;;;;4979863;28;20544;-87
2022/08/05 09:12:56;;;;;;;1.15;0.57;;;20.10;99.90;;;;;;4962721;28;20061;-88
2022/08/05 09:15:22;;;;;;;1.35;0.40;;;20.20;99.90;;;;;;4994613;28;20097;-85
2022/08/05 09:17:49;;;;;;;0.98;0.50;;;20.30;99.90;;;;;;4995035;28;20046;-86
2022/08/05 09:20:15;;;;;;;0.75;0.50;;;20.30;99.90;;;;;;4946862;28;20337;-84
2022/08/05 09:23:11;;;;;;;2.55;0.75;;;20.40;99.90;;;;;;4946769;28;20057;-86
2022/08/05 09:25:46;;;;;;;1.52;0.60;;;20.40;99.90;;;;;;4978322;28;20161;-86
2022/08/05 09:28:23;;;;;;;2.00;0.50;;;20.30;99.90;;;;;;4995455;28;20398;-86
2022/08/05 09:30:55;;;;;;;1.55;0.50;;;20.30;99.90;;;;;;4962974;28;20125;-84
2022/08/05 09:33:22;;;;;;;1.45;0.40;;;20.30;99.90;;;;;;4995665;28;20129;-80
2022/08/05 09:36:02;;;;;;;1.83;0.50;;;20.30;99.90;;;;;;4979872;28;20398;-86
2022/08/05 09:38:28;;;;;;;1.83;0.50;;;20.30;99.90;;;;;;4978473;28;20069;-84
2022/08/05 09:41:03;;;;;;;2.78;0.40;;;20.30;99.90;;;;;;4981473;28;20109;-86
2022/08/05 09:43:34;;;;;;;3.65;0.40;;;20.20;99.90;;;;;;4994801;28;20054;-88
2022/08/05 09:46:00;;;;;;;1.95;0.43;;;20.20;99.90;;;;;;4994621;28;20106;-85
2022/08/05 09:48:29;;;;;;;2.58;0.40;;;20.20;99.90;;;;;;4979630;28;20094;-83
2022/08/05 09:50:58;;;;;;;0.90;0.40;;;20.30;99.90;;;;;;4994269;28;20198;-88
2022/08/05 09:53:24;;;;;;;2.00;0.30;;;20.30;99.90;;;;;;4994287;28;20491;-83
2022/08/05 09:55:52;;;;;;;0.52;0.35;;;20.30;99.90;;;;;;4978778;28;20058;-85
2022/08/05 09:58:19;;;;;;;1.70;0.30;;;20.40;99.90;;;;;;4977998;28;20426;-85
2022/08/05 10:00:57;;;;;;;1.83;0.40;;;20.40;99.90;;;;;;4993916;28;20042;-83
2022/08/05 10:03:24;;;;;;;0.75;0.20;;;20.40;99.90;;;;;;4963151;28;20057;-81
2022/08/05 10:06:07;;;;;;;2.40;0.40;;;20.40;99.90;;;;;;4993815;28;20038;-86
2022/08/05 10:08:34;;;;;;;0.40;0.30;;;20.40;99.90;;;;;;4994250;28;20043;-85
2022/08/05 10:11:12;;;;;;;0.75;0.30;;;20.40;99.90;;;;;;4977378;28;20129;-83
2022/08/05 10:13:38;;;;;;;0.30;0.30;;;20.40;99.90;;;;;;4993881;28;20546;-79
2022/08/05 10:16:06;;;;;;;2.60;0.30;;;20.30;99.90;;;;;;4977379;28;20046;-85
2022/08/05 10:18:33;;;;;;;1.98;0.25;;;20.30;99.90;;;;;;4993597;28;20110;-81
2022/08/05 10:21:06;;;;;;;0.70;0.20;;;20.30;99.90;;;;;;4993524;28;20042;-83
2022/08/05 10:23:35;;;;;;;0.63;0.30;;;20.40;99.90;;;;;;4994608;28;20089;-86
2022/08/05 10:26:04;;;;;;;1.38;0.22;;;20.40;99.90;;;;;;4993931;28;20050;-86
2022/08/05 10:28:30;;;;;;;0.90;0.30;;;20.40;99.90;;;;;;4994374;28;20060;-86
2022/08/05 10:30:58;;;;;;;0.38;0.20;;;20.40;99.90;;;;;;4994053;28;20415;-85
2022/08/05 10:33:26;;;;;;;1.52;0.30;;;20.50;99.90;;;;;;4962047;28;20129;-83
2022/08/05 10:35:53;;;;;;;1.38;0.28;;;20.60;99.90;;;;;;4994721;28;20057;-84
2022/08/05 10:38:21;;;;;;;1.02;0.30;;;20.60;99.90;;;;;;4994756;28;20069;-85
2022/08/05 10:40:57;;;;;;;1.55;0.20;;;20.70;99.90;;;;;;4979178;28;20038;-87
2022/08/05 10:43:44;;;;;;;0.43;0.20;;;20.80;99.90;;;;;;4996188;28;20121;-86
2022/08/05 10:46:15;;;;;;;0.85;0.20;;;20.80;99.90;;;;;;4978454;28;20049;-82
2022/08/05 10:48:46;;;;;;;1.25;0.20;;;20.90;99.90;;;;;;4977485;28;20050;-83
2022/08/05 10:51:20;;;;;;;2.40;0.25;;;20.90;99.90;;;;;;4992990;28;20108;-80
2022/08/05 10:53:53;;;;;;;1.83;0.20;;;20.90;99.90;;;;;;4995081;28;20058;-83
2022/08/05 10:56:25;;;;;;;0.63;0.20;;;20.90;99.90;;;;;;4993067;28;20198;-79
2022/08/05 10:58:53;;;;;;;0.73;0.10;;;20.90;99.90;;;;;;4992769;28;20127;-79
2022/08/05 11:01:34;;;;;;;0.57;0.20;;;20.90;99.90;;;;;;4975792;28;20690;-78
2022/08/05 11:04:01;;;;;;;0.65;0.20;;;20.90;99.90;;;;;;4976880;28;20046;-80
2022/08/05 11:06:27;;;;;;;0.40;0.30;;;20.90;99.90;;;;;;4976859;28;20108;-83
2022/08/05 11:09:15;;;;;;;0.45;0.20;;;20.90;99.90;;;;;;4992489;28;20499;-83
2022/08/05 11:11:43;;;;;;;0.30;0.20;;;21.00;99.90;;;;;;4991779;28;20059;-79
2022/08/05 11:14:11;;;;;;;0.77;0.20;;;21.00;99.90;;;;;;4992524;28;20059;-79
2022/08/05 11:16:37;;;;;;;0.60;0.20;;;21.00;99.80;;;;;;4994311;28;20114;-81
2022/08/05 11:19:26;;;;;;;0.10;0.10;;;21.00;99.20;;;;;;4992177;28;20054;-82
2022/08/05 11:21:53;;;;;;;0.60;0.10;;;21.10;98.60;;;;;;4976709;28;20049;-79
2022/08/05 11:24:20;;;;;;;0.45;0.10;;;21.20;97.30;;;;;;4975772;28;20494;-79
2022/08/05 11:26:47;;;;;;;0.98;0.20;;;21.20;97.50;;;;;;4976333;28;20368;-81
2022/08/05 11:29:33;;;;;;;0.50;0.13;;;21.30;96.80;;;;;;4976122;28;20052;-87
2022/08/05 11:32:22;;;;;;;0.40;0.10;;;21.30;96.10;;;;;;4976300;28;20054;-83
2022/08/05 11:34:47;;;;;;;0.10;0.10;;;21.30;95.50;;;;;;4960933;28;20046;-80
2022/08/05 11:37:40;;;;;;;0.93;0.20;;;21.40;95.20;;;;;;4993621;28;20359;-82
2022/08/05 11:40:06;;;;;;;;;;;21.40;95.20;;;;;;4976217;28;20047;-85
2022/08/05 11:42:33;;;;;;;1.08;0.10;;;21.50;93.60;;;;;;4976547;28;20068;-84
2022/08/05 11:45:04;;;;;;;5.13;0.20;;;21.50;94.70;;;;;;4993187;28;20046;-83
2022/08/05 11:47:34;;;;;;;1.80;0.10;;;21.40;93.90;;;;;;4976929;28;20401;-85
2022/08/05 11:50:00;;;;;;;1.38;0.10;;;21.40;93.90;;;;;;5009858;28;20475;-83
2022/08/05 11:52:27;;;;;;;0.28;0.10;;;21.30;91.60;;;;;;4993009;28;20045;-79
2022/08/05 11:54:53;;;;;;;0.40;0.10;;;21.30;91.20;;;;;;4993021;28;20057;-78
2022/08/05 11:57:19;;;;;;;1.73;0.10;;;21.30;91.30;;;;;;4994085;28;20046;-80
2022/08/05 11:59:44;;;;;;;0.30;0.10;;;21.30;91.40;;;;;;4977361;28;20370;-77
2022/08/05 12:02:10;;;;;;;2.38;0.20;;;21.30;91.80;;;;;;4976710;28;20054;-75
2022/08/05 12:04:42;;;;;;;1.35;0.10;;;21.30;92.10;;;;;;4977622;28;20143;-77
2022/08/05 12:07:10;;;;;;;1.65;0.10;;;21.30;90.80;;;;;;4992776;28;20077;-80
2022/08/05 12:09:52;;;;;;;0.88;0.10;;;21.30;90.60;;;;;;4976825;28;20426;-81
2022/08/05 12:12:27;;;;;;;0.68;0.20;;;21.20;90.50;;;;;;4977059;28;20475;-75
2022/08/05 12:14:54;;;;;;;2.03;0.20;;;21.20;91.20;;;;;;4997676;28;20495;-79
2022/08/05 12:17:20;;;;;;;1.63;0.20;;;21.00;91.70;;;;;;4997492;28;20054;-77
2022/08/05 12:19:50;;;;;;;0.45;0.10;;;21.00;92.20;;;;;;4996509;28;20053;-75
2022/08/05 12:22:20;;;;;;;0.50;0.10;;;20.90;91.20;;;;;;4997332;28;20047;-73
2022/08/05 12:24:48;;;;;;;1.65;0.15;;;20.80;89.00;;;;;;4980485;28;20129;-73
2022/08/05 12:27:21;;;;;;;0.75;0.20;;;20.80;88.90;;;;;;4997351;28;20129;-79
2022/08/05 12:30:10;;;;;;;2.08;0.20;;;20.80;89.80;;;;;;4997303;28;20050;-75
2022/08/05 12:32:44;;;;;;;2.17;0.20;;;20.80;91.00;;;;;;4997274;28;20130;-78
2022/08/05 12:35:10;;;;;;;0.68;0.10;;;20.90;90.20;;;;;;4996612;28;20137;-75
2022/08/05 12:37:37;;;;;;;1.30;0.20;;;20.90;91.20;;;;;;4980747;28;20145;-76
2022/08/05 12:40:08;;;;;;;3.40;0.30;;;20.90;90.70;;;;;;4997115;28;20050;-78
2022/08/05 12:42:35;;;;;;;2.08;0.20;;;20.90;90.00;;;;;;4979525;28;20050;-78
2022/08/05 12:45:05;;;;;;;1.05;0.20;;;20.90;89.80;;;;;;4996273;28;20050;-74
2022/08/05 12:47:31;;;;;;;0.40;0.10;;;20.90;90.90;;;;;;4980158;28;20453;-81
2022/08/05 12:49:58;;;;;;;2.58;0.25;;;20.80;92.10;;;;;;4995979;28;20046;-79
2022/08/05 12:52:24;;;;;;;2.42;0.20;;;20.80;92.10;;;;;;4996893;28;20100;-79
2022/08/05 12:54:50;;;;;;;1.75;0.20;;;20.90;91.30;;;;;;4995653;28;20050;-77
2022/08/05 12:57:16;;;;;;;1.35;0.30;;;20.80;90.30;;;;;;4995659;28;20057;-78
2022/08/05 12:59:54;;;;;;;1.88;0.20;;;20.70;90.70;;;;;;4995626;28;20050;-82